createdAt,value
2018-12-08T00:00:01.162Z,8.61
2018-12-08T00:00:27.260Z,8.58
2018-12-08T00:00:53.363Z,8.63
2018-12-08T00:01:19.470Z,8.55
2018-12-08T00:01:45.606Z,8.56
2018-12-08T00:02:11.740Z,8.61
2018-12-08T00:02:37.846Z,8.63
2018-12-08T00:03:03.945Z,8.6
2018-12-08T00:03:30.049Z,8.66
2018-12-08T00:03:56.157Z,8.67
2018-12-08T00:04:22.255Z,8.58
2018-12-08T00:04:48.389Z,8.63
2018-12-08T00:05:14.489Z,8.51
2018-12-08T00:05:40.601Z,8.61
2018-12-08T00:06:06.698Z,8.63
2018-12-08T00:06:32.807Z,8.58
2018-12-08T00:06:58.967Z,8.49
2018-12-08T00:07:25.069Z,8.58
2018-12-08T00:07:51.174Z,8.51
2018-12-08T00:08:17.280Z,8.51
2018-12-08T00:08:43.390Z,8.58
2018-12-08T00:09:09.491Z,8.67
2018-12-08T00:09:35.598Z,8.63
2018-12-08T00:10:01.707Z,8.63
2018-12-08T00:10:27.819Z,8.66
2018-12-08T00:10:53.946Z,8.63
2018-12-08T00:11:20.075Z,8.64
2018-12-08T00:11:47.176Z,8.52
2018-12-08T00:12:13.280Z,8.55
2018-12-08T00:12:39.388Z,8.61
2018-12-08T00:13:05.497Z,8.6
2018-12-08T00:13:31.601Z,8.61
2018-12-08T00:13:57.703Z,8.63
2018-12-08T00:14:23.812Z,8.7
2018-12-08T00:14:49.913Z,8.58
2018-12-08T00:15:16.025Z,8.61
2018-12-08T00:15:42.154Z,8.6
2018-12-08T00:16:08.285Z,8.61
2018-12-08T00:16:34.390Z,8.67
2018-12-08T00:17:00.485Z,8.73
2018-12-08T00:17:26.594Z,8.73
2018-12-08T00:17:52.701Z,8.64
2018-12-08T00:18:18.831Z,8.76
2018-12-08T00:18:44.934Z,8.76
2018-12-08T00:19:11.039Z,8.71
2018-12-08T00:19:37.142Z,8.71
2018-12-08T00:20:03.246Z,8.74
2018-12-08T00:20:29.407Z,8.76
2018-12-08T00:20:55.541Z,8.71
2018-12-08T00:21:21.645Z,8.71
2018-12-08T00:21:47.786Z,8.73
2018-12-08T00:22:13.887Z,8.67
2018-12-08T00:22:40.021Z,8.71
2018-12-08T00:23:06.128Z,8.71
2018-12-08T00:23:32.231Z,8.63
2018-12-08T00:23:58.335Z,8.73
2018-12-08T00:24:24.438Z,8.73
2018-12-08T00:24:50.587Z,8.74
2018-12-08T00:25:16.691Z,8.76
2018-12-08T00:25:42.802Z,8.78
2018-12-08T00:26:08.906Z,8.78
2018-12-08T00:26:35.013Z,8.81
2018-12-08T00:27:01.145Z,8.74
2018-12-08T00:27:27.249Z,8.85
2018-12-08T00:27:53.357Z,8.7
2018-12-08T00:28:19.524Z,8.71
2018-12-08T00:28:45.590Z,8.79
2018-12-08T00:29:11.695Z,8.79
2018-12-08T00:29:37.795Z,8.78
2018-12-08T00:30:03.929Z,8.76
2018-12-08T00:30:30.033Z,8.73
2018-12-08T00:30:56.145Z,8.76
2018-12-08T00:31:22.275Z,8.79
2018-12-08T00:31:48.401Z,8.74
2018-12-08T00:32:14.499Z,8.73
2018-12-08T00:32:40.637Z,8.85
2018-12-08T00:33:06.744Z,8.81
2018-12-08T00:33:32.874Z,8.74
2018-12-08T00:33:58.977Z,8.84
2018-12-08T00:34:25.085Z,8.74
2018-12-08T00:34:51.254Z,8.87
2018-12-08T00:35:17.358Z,8.82
2018-12-08T00:35:43.463Z,8.88
2018-12-08T00:36:09.571Z,8.82
2018-12-08T00:36:35.674Z,8.82
2018-12-08T00:37:01.784Z,8.81
2018-12-08T00:37:27.885Z,8.78
2018-12-08T00:37:53.993Z,8.74
2018-12-08T00:38:20.097Z,8.7
2018-12-08T00:38:46.207Z,8.73
2018-12-08T00:39:12.348Z,8.73
2018-12-08T00:39:38.403Z,8.76
2018-12-08T00:40:04.507Z,8.71
2018-12-08T00:40:30.608Z,8.71
2018-12-08T00:40:56.725Z,8.73
2018-12-08T00:41:22.852Z,8.7
2018-12-08T00:41:48.955Z,8.73
2018-12-08T00:42:15.054Z,8.74
2018-12-08T00:42:41.197Z,8.63
2018-12-08T00:43:07.301Z,8.71
2018-12-08T00:43:33.401Z,8.67
2018-12-08T00:43:59.508Z,8.63
2018-12-08T00:44:25.616Z,8.63
2018-12-08T00:44:51.784Z,8.64
2018-12-08T00:45:17.855Z,8.7
2018-12-08T00:45:43.955Z,8.63
2018-12-08T00:46:10.059Z,8.74
2018-12-08T00:46:36.168Z,8.61
2018-12-08T00:47:02.271Z,8.67
2018-12-08T00:47:28.374Z,8.67
2018-12-08T00:47:54.489Z,8.7
2018-12-08T00:48:20.621Z,8.69
2018-12-08T00:48:46.725Z,8.7
2018-12-08T00:49:12.825Z,8.76
2018-12-08T00:49:38.933Z,8.74
2018-12-08T00:50:05.060Z,8.71
2018-12-08T00:50:31.191Z,8.71
2018-12-08T00:50:57.293Z,8.76
2018-12-08T00:51:23.401Z,8.74
2018-12-08T00:51:49.505Z,8.74
2018-12-08T00:52:15.613Z,8.85
2018-12-08T00:52:41.742Z,8.73
2018-12-08T00:53:07.848Z,8.76
2018-12-08T00:53:33.954Z,8.82
2018-12-08T00:54:00.063Z,8.81
2018-12-08T00:54:26.196Z,8.82
2018-12-08T00:54:52.303Z,8.84
2018-12-08T00:55:18.410Z,8.84
2018-12-08T00:55:44.515Z,8.78
2018-12-08T00:56:10.624Z,8.76
2018-12-08T00:56:36.726Z,8.73
2018-12-08T00:57:02.834Z,8.79
2018-12-08T00:57:28.937Z,8.7
2018-12-08T00:57:55.044Z,8.73
2018-12-08T00:58:21.146Z,8.6
2018-12-08T00:58:47.284Z,8.71
2018-12-08T00:59:13.385Z,8.74
2018-12-08T00:59:39.491Z,8.64
2018-12-08T01:00:05.620Z,8.64
2018-12-08T01:00:31.725Z,8.67
2018-12-08T01:00:57.825Z,8.63
2018-12-08T01:01:23.933Z,8.6
2018-12-08T01:01:50.047Z,8.61
2018-12-08T01:02:16.145Z,8.63
2018-12-08T01:02:42.298Z,8.63
2018-12-08T01:03:08.399Z,8.58
2018-12-08T01:03:34.506Z,8.66
2018-12-08T01:04:00.611Z,8.6
2018-12-08T01:04:26.776Z,8.53
2018-12-08T01:04:52.902Z,8.53
2018-12-08T01:05:19.007Z,8.53
2018-12-08T01:05:45.149Z,8.58
2018-12-08T01:06:11.286Z,8.58
2018-12-08T01:06:37.387Z,8.55
2018-12-08T01:07:03.494Z,8.46
2018-12-08T01:07:29.606Z,8.52
2018-12-08T01:07:55.758Z,8.53
2018-12-08T01:08:21.863Z,8.51
2018-12-08T01:08:47.995Z,8.45
2018-12-08T01:09:14.108Z,8.51
2018-12-08T01:09:40.215Z,8.53
2018-12-08T01:10:06.319Z,8.48
2018-12-08T01:10:32.428Z,8.41
2018-12-08T01:10:58.533Z,8.38
2018-12-08T01:11:24.639Z,8.45
2018-12-08T01:11:50.744Z,8.37
2018-12-08T01:12:16.850Z,8.46
2018-12-08T01:12:42.994Z,8.48
2018-12-08T01:13:09.107Z,8.41
2018-12-08T01:13:35.208Z,8.48
2018-12-08T01:14:01.322Z,8.45
2018-12-08T01:14:27.468Z,8.49
2018-12-08T01:14:53.583Z,8.41
2018-12-08T01:15:19.678Z,8.52
2018-12-08T01:15:45.781Z,8.48
2018-12-08T01:16:11.936Z,8.46
2018-12-08T01:16:38.044Z,8.41
2018-12-08T01:17:04.148Z,8.48
2018-12-08T01:17:30.254Z,8.46
2018-12-08T01:17:56.359Z,8.48
2018-12-08T01:18:22.457Z,8.46
2018-12-08T01:18:48.567Z,8.42
2018-12-08T01:19:14.677Z,8.37
2018-12-08T01:19:40.780Z,8.41
2018-12-08T01:20:06.892Z,8.36
2018-12-08T01:20:32.998Z,8.42
2018-12-08T01:20:59.108Z,8.42
2018-12-08T01:21:25.207Z,8.34
2018-12-08T01:21:51.303Z,8.33
2018-12-08T01:22:17.416Z,8.37
2018-12-08T01:22:43.562Z,8.36
2018-12-08T01:23:09.670Z,8.42
2018-12-08T01:23:35.777Z,8.36
2018-12-08T01:24:01.910Z,8.36
2018-12-08T01:24:28.014Z,8.31
2018-12-08T01:24:54.704Z,8.36
2018-12-08T01:25:20.809Z,8.38
2018-12-08T01:25:46.918Z,8.38
2018-12-08T01:26:13.027Z,8.34
2018-12-08T01:26:39.130Z,8.36
2018-12-08T01:27:05.275Z,8.38
2018-12-08T01:27:31.404Z,8.36
2018-12-08T01:27:57.509Z,8.37
2018-12-08T01:28:23.616Z,8.37
2018-12-08T01:28:49.721Z,8.31
2018-12-08T01:29:15.825Z,8.31
2018-12-08T01:29:41.931Z,8.37
2018-12-08T01:30:08.036Z,8.31
2018-12-08T01:30:34.148Z,8.37
2018-12-08T01:31:00.258Z,8.28
2018-12-08T01:31:26.359Z,8.3
2018-12-08T01:31:52.498Z,8.38
2018-12-08T01:32:18.603Z,8.27
2018-12-08T01:32:44.707Z,8.31
2018-12-08T01:33:10.820Z,8.3
2018-12-08T01:33:36.924Z,8.27
2018-12-08T01:34:03.027Z,8.31
2018-12-08T01:34:29.134Z,8.26
2018-12-08T01:34:55.242Z,8.3
2018-12-08T01:35:21.434Z,8.27
2018-12-08T01:35:47.539Z,8.27
2018-12-08T01:36:13.710Z,8.27
2018-12-08T01:36:39.785Z,8.19
2018-12-08T01:37:05.924Z,8.18
2018-12-08T01:37:32.033Z,8.23
2018-12-08T01:37:58.173Z,8.19
2018-12-08T01:38:24.278Z,8.13
2018-12-08T01:38:50.385Z,8.16
2018-12-08T01:39:16.525Z,8.15
2018-12-08T01:39:42.631Z,8.19
2018-12-08T01:40:08.728Z,8.15
2018-12-08T01:40:34.834Z,8.15
2018-12-08T01:41:00.943Z,8.12
2018-12-08T01:41:27.123Z,8.08
2018-12-08T01:41:53.255Z,8.13
2018-12-08T01:42:19.367Z,8.15
2018-12-08T01:42:45.471Z,8.12
2018-12-08T01:43:11.578Z,8.12
2018-12-08T01:43:37.715Z,8.2
2018-12-08T01:44:03.819Z,8.23
2018-12-08T01:44:30.572Z,8.2
2018-12-08T01:44:56.710Z,8.16
2018-12-08T01:45:22.812Z,8.23
2018-12-08T01:45:48.910Z,8.13
2018-12-08T01:46:15.014Z,8.16
2018-12-08T01:46:41.119Z,8.27
2018-12-08T01:47:07.227Z,8.23
2018-12-08T01:47:33.361Z,8.28
2018-12-08T01:47:59.494Z,8.26
2018-12-08T01:48:25.599Z,8.28
2018-12-08T01:48:51.709Z,8.23
2018-12-08T01:49:17.817Z,8.26
2018-12-08T01:49:43.944Z,8.19
2018-12-08T01:50:10.045Z,8.28
2018-12-08T01:50:36.149Z,8.31
2018-12-08T01:51:02.262Z,8.3
2018-12-08T01:51:28.426Z,8.26
2018-12-08T01:51:54.534Z,8.28
2018-12-08T01:52:20.633Z,8.24
2018-12-08T01:52:46.775Z,8.33
2018-12-08T01:53:13.419Z,8.31
2018-12-08T01:53:39.649Z,8.34
2018-12-08T01:54:05.755Z,8.33
2018-12-08T01:54:31.866Z,8.3
2018-12-08T01:54:57.974Z,8.33
2018-12-08T01:55:24.072Z,8.27
2018-12-08T01:55:50.173Z,8.27
2018-12-08T01:56:16.283Z,8.3
2018-12-08T01:56:42.377Z,8.27
2018-12-08T01:57:08.482Z,8.31
2018-12-08T01:57:34.594Z,8.28
2018-12-08T01:58:00.692Z,8.31
2018-12-08T01:58:26.801Z,8.38
2018-12-08T01:58:52.911Z,8.37
2018-12-08T01:59:19.020Z,8.36
2018-12-08T01:59:45.189Z,8.27
2018-12-08T02:00:11.256Z,8.31
2018-12-08T02:00:37.353Z,8.3
2018-12-08T02:01:03.460Z,8.28
2018-12-08T02:01:29.561Z,8.3
2018-12-08T02:01:55.675Z,8.28
2018-12-08T02:02:21.821Z,8.27
2018-12-08T02:02:47.959Z,8.3
2018-12-08T02:03:14.093Z,8.3
2018-12-08T02:03:40.230Z,8.27
2018-12-08T02:04:06.366Z,8.28
2018-12-08T02:04:32.477Z,8.24
2018-12-08T02:04:58.585Z,8.2
2018-12-08T02:05:24.690Z,8.28
2018-12-08T02:05:50.798Z,8.3
2018-12-08T02:06:16.909Z,8.3
2018-12-08T02:06:43.014Z,8.26
2018-12-08T02:07:09.120Z,8.16
2018-12-08T02:07:35.226Z,8.26
2018-12-08T02:08:01.362Z,8.23
2018-12-08T02:08:27.467Z,8.26
2018-12-08T02:08:53.566Z,8.3
2018-12-08T02:09:19.793Z,8.3
2018-12-08T02:09:45.897Z,8.28
2018-12-08T02:10:12.005Z,8.26
2018-12-08T02:10:38.106Z,8.3
2018-12-08T02:11:04.216Z,8.23
2018-12-08T02:11:31.348Z,8.33
2018-12-08T02:11:57.442Z,8.38
2018-12-08T02:12:23.551Z,8.27
2018-12-08T02:12:49.678Z,8.33
2018-12-08T02:13:15.778Z,8.33
2018-12-08T02:13:41.946Z,8.34
2018-12-08T02:14:08.053Z,8.28
2018-12-08T02:14:34.163Z,8.34
2018-12-08T02:15:00.310Z,8.36
2018-12-08T02:15:26.444Z,8.3
2018-12-08T02:15:52.559Z,8.34
2018-12-08T02:16:18.655Z,8.33
2018-12-08T02:16:44.765Z,8.34
2018-12-08T02:17:10.871Z,8.3
2018-12-08T02:17:36.972Z,8.31
2018-12-08T02:18:03.157Z,8.33
2018-12-08T02:18:29.268Z,8.34
2018-12-08T02:18:55.404Z,8.37
2018-12-08T02:19:21.511Z,8.36
2018-12-08T02:19:47.612Z,8.28
2018-12-08T02:20:13.719Z,8.33
2018-12-08T02:20:39.820Z,8.37
2018-12-08T02:21:05.923Z,8.38
2018-12-08T02:21:32.034Z,8.33
2018-12-08T02:21:58.138Z,8.36
2018-12-08T02:22:24.239Z,8.37
2018-12-08T02:22:50.352Z,8.37
2018-12-08T02:23:16.454Z,8.42
2018-12-08T02:23:42.554Z,8.44
2018-12-08T02:24:08.663Z,8.38
2018-12-08T02:24:34.780Z,8.48
2018-12-08T02:25:00.886Z,8.45
2018-12-08T02:25:26.986Z,8.48
2018-12-08T02:25:53.091Z,8.36
2018-12-08T02:26:19.228Z,8.38
2018-12-08T02:26:45.337Z,8.42
2018-12-08T02:27:11.436Z,8.38
2018-12-08T02:27:37.543Z,8.37
2018-12-08T02:28:03.640Z,8.36
2018-12-08T02:28:29.753Z,8.41
2018-12-08T02:28:55.856Z,8.38
2018-12-08T02:29:21.960Z,8.37
2018-12-08T02:29:48.069Z,8.41
2018-12-08T02:30:14.210Z,8.38
2018-12-08T02:30:40.404Z,8.41
2018-12-08T02:31:06.511Z,8.38
2018-12-08T02:31:32.672Z,8.37
2018-12-08T02:31:58.773Z,8.38
2018-12-08T02:32:24.906Z,8.37
2018-12-08T02:32:51.055Z,8.34
2018-12-08T02:33:17.174Z,8.2
2018-12-08T02:33:43.304Z,8.16
2018-12-08T02:34:09.403Z,8.19
2018-12-08T02:34:35.536Z,8.2
2018-12-08T02:35:01.646Z,8.13
2018-12-08T02:35:27.773Z,8.2
2018-12-08T02:35:53.879Z,8.16
2018-12-08T02:36:20.007Z,8.18
2018-12-08T02:36:46.109Z,8.18
2018-12-08T02:37:12.275Z,8.16
2018-12-08T02:37:38.435Z,8.12
2018-12-08T02:38:04.571Z,8.24
2018-12-08T02:38:30.678Z,8.18
2018-12-08T02:38:57.768Z,8.18
2018-12-08T02:39:23.903Z,8.16
2018-12-08T02:39:50.010Z,8.13
2018-12-08T02:40:16.121Z,8.12
2018-12-08T02:40:42.207Z,8.09
2018-12-08T02:41:08.312Z,8.09
2018-12-08T02:41:34.424Z,8.13
2018-12-08T02:42:00.532Z,8.12
2018-12-08T02:42:26.663Z,8.06
2018-12-08T02:42:52.800Z,8.12
2018-12-08T02:43:18.910Z,8.1
2018-12-08T02:43:45.038Z,8.05
2018-12-08T02:44:11.137Z,8.08
2018-12-08T02:44:37.239Z,8.15
2018-12-08T02:45:03.372Z,8.15
2018-12-08T02:45:29.477Z,8.18
2018-12-08T02:45:55.588Z,8.12
2018-12-08T02:46:21.835Z,8.19
2018-12-08T02:46:47.937Z,8.16
2018-12-08T02:47:14.045Z,8.16
2018-12-08T02:47:40.202Z,8.1
2018-12-08T02:48:06.306Z,8.13
2018-12-08T02:48:32.420Z,8.2
2018-12-08T02:48:58.540Z,8.16
2018-12-08T02:49:24.650Z,8.19
2018-12-08T02:49:50.758Z,8.18
2018-12-08T02:50:16.878Z,8.18
2018-12-08T02:50:43.033Z,8.23
2018-12-08T02:51:09.141Z,8.15
2018-12-08T02:51:35.253Z,8.23
2018-12-08T02:52:01.414Z,8.12
2018-12-08T02:52:27.520Z,8.13
2018-12-08T02:52:53.624Z,8.15
2018-12-08T02:53:19.732Z,8.18
2018-12-08T02:53:45.837Z,8.16
2018-12-08T02:54:11.939Z,8.15
2018-12-08T02:54:38.077Z,8.16
2018-12-08T02:55:04.244Z,8.15
2018-12-08T02:55:30.405Z,8.13
2018-12-08T02:55:56.519Z,8.18
2018-12-08T02:56:22.707Z,8.16
2018-12-08T02:56:48.872Z,8.18
2018-12-08T02:57:14.979Z,8.19
2018-12-08T02:57:41.112Z,8.19
2018-12-08T02:58:07.217Z,8.16
2018-12-08T02:58:33.316Z,8.19
2018-12-08T02:58:59.424Z,8.18
2018-12-08T02:59:25.663Z,8.13
2018-12-08T02:59:51.662Z,8.19
2018-12-08T03:00:17.799Z,8.18
2018-12-08T03:00:43.903Z,8.18
2018-12-08T03:01:10.012Z,8.18
2018-12-08T03:01:36.150Z,8.18
2018-12-08T03:02:02.256Z,8.16
2018-12-08T03:02:28.362Z,8.19
2018-12-08T03:02:54.460Z,8.16
2018-12-08T03:03:20.594Z,8.15
2018-12-08T03:03:46.756Z,8.19
2018-12-08T03:04:12.890Z,8.24
2018-12-08T03:04:39.049Z,8.23
2018-12-08T03:05:05.204Z,8.33
2018-12-08T03:05:31.312Z,8.28
2018-12-08T03:05:57.418Z,8.28
2018-12-08T03:06:23.534Z,8.27
2018-12-08T03:06:49.690Z,8.18
2018-12-08T03:07:15.817Z,8.3
2018-12-08T03:07:41.952Z,8.15
2018-12-08T03:08:08.055Z,8.16
2018-12-08T03:08:34.166Z,8.16
2018-12-08T03:09:00.276Z,8.2
2018-12-08T03:09:26.434Z,8.27
2018-12-08T03:09:52.546Z,8.28
2018-12-08T03:10:18.648Z,8.27
2018-12-08T03:10:44.750Z,8.28
2018-12-08T03:11:10.859Z,8.27
2018-12-08T03:11:36.971Z,8.3
2018-12-08T03:12:03.079Z,8.27
2018-12-08T03:12:29.248Z,8.31
2018-12-08T03:12:55.482Z,8.3
2018-12-08T03:13:21.588Z,8.31
2018-12-08T03:13:47.691Z,8.31
2018-12-08T03:14:13.827Z,8.37
2018-12-08T03:14:39.926Z,8.34
2018-12-08T03:15:06.041Z,8.28
2018-12-08T03:15:32.139Z,8.28
2018-12-08T03:15:58.275Z,8.28
2018-12-08T03:16:24.376Z,8.31
2018-12-08T03:16:50.542Z,8.28
2018-12-08T03:17:16.667Z,8.33
2018-12-08T03:17:42.850Z,8.33
2018-12-08T03:18:08.985Z,8.37
2018-12-08T03:18:35.090Z,8.3
2018-12-08T03:19:01.193Z,8.28
2018-12-08T03:19:27.295Z,8.3
2018-12-08T03:19:53.404Z,8.3
2018-12-08T03:20:19.510Z,8.26
2018-12-08T03:20:45.612Z,8.3
2018-12-08T03:21:11.721Z,8.3
2018-12-08T03:21:37.847Z,8.38
2018-12-08T03:22:03.949Z,8.33
2018-12-08T03:22:30.057Z,8.31
2018-12-08T03:22:56.185Z,8.33
2018-12-08T03:23:22.289Z,8.37
2018-12-08T03:23:48.429Z,8.33
2018-12-08T03:24:14.586Z,8.31
2018-12-08T03:24:40.697Z,8.3
2018-12-08T03:25:06.821Z,8.3
2018-12-08T03:25:32.930Z,8.38
2018-12-08T03:25:59.037Z,8.36
2018-12-08T03:26:25.142Z,8.31
2018-12-08T03:26:51.252Z,8.31
2018-12-08T03:27:17.379Z,8.3
2018-12-08T03:27:43.508Z,8.24
2018-12-08T03:28:09.610Z,8.28
2018-12-08T03:28:35.712Z,8.26
2018-12-08T03:29:01.814Z,8.28
2018-12-08T03:29:27.952Z,8.34
2018-12-08T03:29:54.087Z,8.36
2018-12-08T03:30:20.266Z,8.33
2018-12-08T03:30:46.391Z,8.27
2018-12-08T03:31:12.526Z,8.33
2018-12-08T03:31:38.839Z,8.37
2018-12-08T03:32:04.983Z,8.41
2018-12-08T03:32:31.354Z,8.41
2018-12-08T03:32:57.457Z,8.34
2018-12-08T03:33:23.618Z,8.31
2018-12-08T03:33:49.724Z,8.37
2018-12-08T03:34:15.886Z,8.37
2018-12-08T03:34:42.002Z,8.36
2018-12-08T03:35:08.111Z,8.31
2018-12-08T03:35:34.217Z,8.31
2018-12-08T03:36:00.317Z,8.36
2018-12-08T03:36:26.423Z,8.31
2018-12-08T03:36:52.525Z,8.33
2018-12-08T03:37:18.661Z,8.36
2018-12-08T03:37:44.793Z,8.3
2018-12-08T03:38:10.907Z,8.34
2018-12-08T03:38:37.108Z,8.37
2018-12-08T03:39:03.236Z,8.34
2018-12-08T03:39:29.349Z,8.28
2018-12-08T03:39:55.451Z,8.33
2018-12-08T03:40:21.613Z,8.31
2018-12-08T03:40:47.762Z,8.3
2018-12-08T03:41:13.853Z,8.33
2018-12-08T03:41:39.951Z,8.28
2018-12-08T03:42:06.112Z,8.31
2018-12-08T03:42:32.224Z,8.3
2018-12-08T03:42:58.328Z,8.31
2018-12-08T03:43:24.437Z,8.34
2018-12-08T03:43:50.542Z,8.31
2018-12-08T03:44:16.647Z,8.31
2018-12-08T03:44:42.768Z,8.28
2018-12-08T03:45:08.907Z,8.38
2018-12-08T03:45:35.014Z,8.44
2018-12-08T03:46:01.120Z,8.37
2018-12-08T03:46:27.222Z,8.37
2018-12-08T03:46:53.351Z,8.41
2018-12-08T03:47:19.482Z,8.42
2018-12-08T03:47:45.624Z,8.33
2018-12-08T03:48:11.729Z,8.37
2018-12-08T03:48:37.840Z,8.34
2018-12-08T03:49:03.940Z,8.41
2018-12-08T03:49:30.044Z,8.34
2018-12-08T03:49:56.153Z,8.37
2018-12-08T03:50:22.291Z,8.42
2018-12-08T03:50:48.423Z,8.37
2018-12-08T03:51:14.557Z,8.44
2018-12-08T03:51:40.732Z,8.38
2018-12-08T03:52:06.912Z,8.41
2018-12-08T03:52:33.011Z,8.44
2018-12-08T03:52:59.185Z,8.45
2018-12-08T03:53:25.421Z,8.44
2018-12-08T03:53:51.450Z,8.46
2018-12-08T03:54:17.554Z,8.49
2018-12-08T03:54:43.687Z,8.49
2018-12-08T03:55:09.823Z,8.45
2018-12-08T03:55:35.963Z,8.44
2018-12-08T03:56:02.094Z,8.44
2018-12-08T03:56:28.284Z,8.45
2018-12-08T03:56:54.417Z,8.42
2018-12-08T03:57:20.582Z,8.48
2018-12-08T03:57:46.714Z,8.41
2018-12-08T03:58:12.840Z,8.37
2018-12-08T03:58:38.997Z,8.42
2018-12-08T03:59:05.103Z,8.41
2018-12-08T03:59:31.214Z,8.48
2018-12-08T03:59:57.374Z,8.48
2018-12-08T04:00:23.480Z,8.46
2018-12-08T04:00:49.611Z,8.51
2018-12-08T04:01:15.719Z,8.38
2018-12-08T04:01:41.855Z,8.41
2018-12-08T04:02:07.993Z,8.36
2018-12-08T04:02:34.123Z,8.41
2018-12-08T04:03:00.262Z,8.44
2018-12-08T04:03:26.358Z,8.49
2018-12-08T04:03:52.496Z,8.44
2018-12-08T04:04:18.621Z,8.41
2018-12-08T04:04:44.724Z,8.45
2018-12-08T04:05:10.834Z,8.48
2018-12-08T04:05:36.943Z,8.51
2018-12-08T04:06:03.108Z,8.42
2018-12-08T04:06:29.262Z,8.44
2018-12-08T04:06:55.375Z,8.45
2018-12-08T04:07:21.501Z,8.48
2018-12-08T04:07:47.612Z,8.53
2018-12-08T04:08:13.717Z,8.55
2018-12-08T04:08:39.853Z,8.44
2018-12-08T04:09:06.014Z,8.56
2018-12-08T04:09:32.120Z,8.6
2018-12-08T04:09:58.250Z,8.64
2018-12-08T04:10:25.350Z,8.55
2018-12-08T04:10:51.478Z,8.56
2018-12-08T04:11:17.675Z,8.46
2018-12-08T04:11:43.811Z,8.56
2018-12-08T04:12:09.948Z,8.53
2018-12-08T04:12:36.051Z,8.42
2018-12-08T04:13:02.160Z,8.56
2018-12-08T04:13:28.295Z,8.56
2018-12-08T04:13:54.491Z,8.63
2018-12-08T04:14:20.614Z,8.53
2018-12-08T04:14:46.716Z,8.52
2018-12-08T04:15:12.825Z,8.64
2018-12-08T04:15:38.977Z,8.66
2018-12-08T04:16:05.081Z,8.63
2018-12-08T04:16:31.191Z,8.67
2018-12-08T04:16:57.297Z,8.63
2018-12-08T04:17:23.395Z,8.73
2018-12-08T04:17:49.538Z,8.71
2018-12-08T04:18:15.675Z,8.67
2018-12-08T04:18:41.770Z,8.61
2018-12-08T04:19:07.901Z,8.73
2018-12-08T04:19:34.004Z,8.73
2018-12-08T04:20:00.221Z,8.71
2018-12-08T04:20:26.340Z,8.61
2018-12-08T04:20:52.447Z,8.64
2018-12-08T04:21:18.575Z,8.69
2018-12-08T04:21:44.682Z,8.64
2018-12-08T04:22:10.814Z,8.66
2018-12-08T04:22:36.947Z,8.6
2018-12-08T04:23:03.077Z,8.67
2018-12-08T04:23:29.214Z,8.76
2018-12-08T04:23:55.343Z,8.81
2018-12-08T04:24:21.535Z,8.88
2018-12-08T04:24:47.641Z,8.85
2018-12-08T04:25:13.747Z,8.81
2018-12-08T04:25:39.880Z,8.84
2018-12-08T04:26:06.040Z,8.82
2018-12-08T04:26:32.149Z,8.76
2018-12-08T04:26:58.278Z,8.82
2018-12-08T04:27:24.387Z,8.87
2018-12-08T04:27:50.529Z,8.87
2018-12-08T04:28:16.687Z,8.88
2018-12-08T04:28:42.824Z,8.92
2018-12-08T04:29:08.931Z,8.82
2018-12-08T04:29:35.034Z,8.84
2018-12-08T04:30:01.140Z,8.87
2018-12-08T04:30:27.303Z,8.85
2018-12-08T04:30:53.443Z,8.82
2018-12-08T04:31:19.543Z,8.85
2018-12-08T04:31:45.643Z,8.81
2018-12-08T04:32:11.810Z,8.81
2018-12-08T04:32:37.915Z,8.82
2018-12-08T04:33:04.038Z,8.87
2018-12-08T04:33:30.139Z,8.84
2018-12-08T04:33:56.285Z,8.85
2018-12-08T04:34:22.389Z,8.89
2018-12-08T04:34:48.518Z,8.84
2018-12-08T04:35:14.627Z,8.84
2018-12-08T04:35:40.773Z,8.89
2018-12-08T04:36:06.863Z,9
2018-12-08T04:36:32.995Z,9
2018-12-08T04:36:59.134Z,8.95
2018-12-08T04:37:25.239Z,9.04
2018-12-08T04:37:51.350Z,8.99
2018-12-08T04:38:17.475Z,9.1
2018-12-08T04:38:43.617Z,8.97
2018-12-08T04:39:09.744Z,9.06
2018-12-08T04:39:35.872Z,8.99
2018-12-08T04:40:01.979Z,9.04
2018-12-08T04:40:28.110Z,9.06
2018-12-08T04:40:54.215Z,9
2018-12-08T04:41:20.321Z,9.04
2018-12-08T04:41:46.423Z,9
2018-12-08T04:42:12.526Z,9.06
2018-12-08T04:42:38.642Z,8.95
2018-12-08T04:43:04.746Z,9.02
2018-12-08T04:43:30.890Z,9.06
2018-12-08T04:43:56.999Z,9.1
2018-12-08T04:44:23.103Z,9.08
2018-12-08T04:44:49.240Z,9
2018-12-08T04:45:15.342Z,8.99
2018-12-08T04:45:41.446Z,9
2018-12-08T04:46:07.553Z,9.04
2018-12-08T04:46:33.724Z,9.04
2018-12-08T04:46:59.833Z,9.06
2018-12-08T04:47:25.942Z,9.03
2018-12-08T04:47:52.049Z,9.06
2018-12-08T04:48:18.170Z,9.08
2018-12-08T04:48:44.300Z,9.06
2018-12-08T04:49:10.436Z,9.04
2018-12-08T04:49:36.575Z,9.04
2018-12-08T04:50:02.700Z,9.11
2018-12-08T04:50:28.828Z,9.11
2018-12-08T04:50:54.964Z,9.04
2018-12-08T04:51:21.069Z,8.94
2018-12-08T04:51:47.175Z,9.03
2018-12-08T04:52:13.303Z,9.03
2018-12-08T04:52:39.409Z,9.03
2018-12-08T04:53:05.541Z,9.08
2018-12-08T04:53:31.675Z,9.02
2018-12-08T04:53:57.840Z,9.11
2018-12-08T04:54:23.949Z,9.14
2018-12-08T04:54:50.081Z,9
2018-12-08T04:55:16.185Z,8.99
2018-12-08T04:55:42.324Z,9.1
2018-12-08T04:56:08.455Z,9.04
2018-12-08T04:56:34.570Z,8.99
2018-12-08T04:57:00.670Z,8.91
2018-12-08T04:57:26.782Z,9.03
2018-12-08T04:57:52.889Z,8.99
2018-12-08T04:58:18.995Z,8.97
2018-12-08T04:58:45.101Z,8.92
2018-12-08T04:59:11.235Z,8.97
2018-12-08T04:59:37.461Z,8.99
2018-12-08T05:00:03.535Z,8.94
2018-12-08T05:00:29.668Z,9.04
2018-12-08T05:00:55.799Z,8.95
2018-12-08T05:01:21.929Z,8.95
2018-12-08T05:01:48.073Z,8.89
2018-12-08T05:02:14.179Z,8.87
2018-12-08T05:02:40.292Z,8.92
2018-12-08T05:03:06.425Z,8.95
2018-12-08T05:03:32.532Z,8.85
2018-12-08T05:03:58.636Z,8.91
2018-12-08T05:04:24.738Z,8.87
2018-12-08T05:04:50.840Z,8.84
2018-12-08T05:05:16.948Z,8.91
2018-12-08T05:05:43.051Z,8.88
2018-12-08T05:06:09.156Z,8.85
2018-12-08T05:06:35.259Z,8.84
2018-12-08T05:07:01.364Z,8.94
2018-12-08T05:07:27.471Z,8.84
2018-12-08T05:07:53.574Z,8.89
2018-12-08T05:08:19.681Z,8.94
2018-12-08T05:08:45.782Z,8.89
2018-12-08T05:09:11.927Z,8.94
2018-12-08T05:09:38.029Z,8.91
2018-12-08T05:10:04.140Z,8.94
2018-12-08T05:10:30.265Z,8.85
2018-12-08T05:10:56.370Z,8.84
2018-12-08T05:11:22.478Z,8.87
2018-12-08T05:11:48.604Z,8.84
2018-12-08T05:12:14.707Z,8.85
2018-12-08T05:12:40.820Z,8.85
2018-12-08T05:13:06.923Z,8.92
2018-12-08T05:13:33.020Z,8.88
2018-12-08T05:13:59.133Z,8.87
2018-12-08T05:14:25.312Z,8.85
2018-12-08T05:14:51.394Z,9
2018-12-08T05:15:17.501Z,8.88
2018-12-08T05:15:43.607Z,8.85
2018-12-08T05:16:09.725Z,8.87
2018-12-08T05:16:35.831Z,8.99
2018-12-08T05:17:01.937Z,8.84
2018-12-08T05:17:28.070Z,8.87
2018-12-08T05:17:54.205Z,8.85
2018-12-08T05:18:20.313Z,8.82
2018-12-08T05:18:46.419Z,8.84
2018-12-08T05:19:12.619Z,8.89
2018-12-08T05:19:38.738Z,8.87
2018-12-08T05:20:04.885Z,8.88
2018-12-08T05:20:31.023Z,9
2018-12-08T05:20:57.135Z,8.88
2018-12-08T05:21:23.239Z,8.87
2018-12-08T05:21:49.354Z,8.89
2018-12-08T05:22:15.533Z,8.87
2018-12-08T05:22:41.584Z,8.95
2018-12-08T05:23:07.723Z,8.87
2018-12-08T05:23:33.834Z,8.82
2018-12-08T05:23:59.994Z,8.85
2018-12-08T05:24:26.170Z,8.88
2018-12-08T05:24:52.275Z,8.87
2018-12-08T05:25:18.386Z,9
2018-12-08T05:25:44.509Z,8.91
2018-12-08T05:26:10.643Z,8.95
2018-12-08T05:26:36.755Z,8.97
2018-12-08T05:27:02.871Z,8.89
2018-12-08T05:27:28.981Z,8.87
2018-12-08T05:27:55.136Z,8.87
2018-12-08T05:28:21.243Z,8.97
2018-12-08T05:28:47.402Z,9
2018-12-08T05:29:13.506Z,8.97
2018-12-08T05:29:39.606Z,8.88
2018-12-08T05:30:05.721Z,8.99
2018-12-08T05:30:31.827Z,8.94
2018-12-08T05:30:57.941Z,8.97
2018-12-08T05:31:24.087Z,8.97
2018-12-08T05:31:50.200Z,8.89
2018-12-08T05:32:16.310Z,8.89
2018-12-08T05:32:42.421Z,8.85
2018-12-08T05:33:08.531Z,8.85
2018-12-08T05:33:34.666Z,8.91
2018-12-08T05:34:00.776Z,9.02
2018-12-08T05:34:26.916Z,8.87
2018-12-08T05:34:53.023Z,8.91
2018-12-08T05:35:19.207Z,9
2018-12-08T05:35:45.351Z,8.95
2018-12-08T05:36:11.476Z,8.95
2018-12-08T05:36:37.591Z,9
2018-12-08T05:37:03.703Z,8.91
2018-12-08T05:37:29.809Z,8.89
2018-12-08T05:37:55.948Z,8.87
2018-12-08T05:38:22.050Z,8.91
2018-12-08T05:38:48.153Z,8.94
2018-12-08T05:39:14.261Z,8.88
2018-12-08T05:39:40.371Z,8.97
2018-12-08T05:40:06.505Z,9.02
2018-12-08T05:40:32.612Z,8.85
2018-12-08T05:40:58.742Z,8.85
2018-12-08T05:41:24.847Z,8.89
2018-12-08T05:41:50.951Z,8.94
2018-12-08T05:42:17.051Z,8.91
2018-12-08T05:42:43.165Z,8.95
2018-12-08T05:43:09.268Z,8.94
2018-12-08T05:43:35.378Z,8.99
2018-12-08T05:44:01.478Z,8.99
2018-12-08T05:44:27.592Z,8.97
2018-12-08T05:44:53.695Z,8.99
2018-12-08T05:45:19.807Z,8.95
2018-12-08T05:45:45.914Z,8.91
2018-12-08T05:46:12.066Z,8.97
2018-12-08T05:46:38.159Z,8.95
2018-12-08T05:47:04.965Z,8.97
2018-12-08T05:47:31.073Z,8.99
2018-12-08T05:47:57.176Z,8.94
2018-12-08T05:48:23.286Z,9.08
2018-12-08T05:48:49.415Z,8.95